TKJ8NA LTAC-LTFH
Flight info
| Callsign | TKJ8NA |
|---|---|
| Flight time | 0h 36m |
| Altitude | 25000 |
| Route | ILHAN1B/21R ILHAN W71 ERGUN UW71 HAVZA |
| Aircraft | A320/M-SDE3FGHIRWY/LB1 |
Departure
| Time | 2026-04-23 19:05 |
|---|---|
| Airport | Esenboğa International Airport (LTAC) |
Arrival
| Time | 2026-04-23 19:41 |
|---|---|
| Airport | Samsun-Çarşamba Airport (LTFH) |
| Time | Latitude | Longitude | Altitude | Speed | Heading |
|---|---|---|---|---|---|
| 2026-04-23 18:09 | 40.11380 | 32.98854 | 3113 ft | 0 kts | 127° |
| 2026-04-23 18:49 | 40.11388 | 32.98841 | 3113 ft | 4 kts | 127° |
| 2026-04-23 18:50 | 40.11396 | 32.98825 | 3113 ft | 2 kts | 127° |
| 2026-04-23 18:50 | 40.11411 | 32.98787 | 3113 ft | 4 kts | 91° |
| 2026-04-23 18:50 | 40.11405 | 32.98757 | 3113 ft | 4 kts | 43° |
| 2026-04-23 18:50 | 40.11400 | 32.98751 | 3113 ft | 0 kts | 36° |
| 2026-04-23 18:53 | 40.11414 | 32.98765 | 3113 ft | 10 kts | 36° |
| 2026-04-23 18:53 | 40.11480 | 32.98828 | 3113 ft | 13 kts | 39° |
| 2026-04-23 18:54 | 40.11550 | 32.98905 | 3113 ft | 14 kts | 38° |
| 2026-04-23 18:54 | 40.11620 | 32.98942 | 3113 ft | 12 kts | 339° |
| 2026-04-23 18:54 | 40.11690 | 32.98895 | 3113 ft | 13 kts | 23° |
| 2026-04-23 18:54 | 40.11731 | 32.98933 | 3113 ft | 5 kts | 36° |
| 2026-04-23 18:55 | 40.11759 | 32.98959 | 3113 ft | 2 kts | 36° |
| 2026-04-23 18:55 | 40.11793 | 32.98992 | 3113 ft | 12 kts | 36° |
| 2026-04-23 18:55 | 40.11868 | 32.99065 | 3114 ft | 14 kts | 36° |
| 2026-04-23 18:55 | 40.11953 | 32.99145 | 3114 ft | 16 kts | 36° |
| 2026-04-23 18:56 | 40.12013 | 32.99202 | 3115 ft | 17 kts | 36° |
| 2026-04-23 18:56 | 40.12125 | 32.99309 | 3117 ft | 15 kts | 36° |
| 2026-04-23 18:56 | 40.12212 | 32.99392 | 3118 ft | 16 kts | 36° |
| 2026-04-23 18:56 | 40.12307 | 32.99484 | 3119 ft | 18 kts | 37° |
| 2026-04-23 18:57 | 40.12410 | 32.99582 | 3120 ft | 19 kts | 36° |
| 2026-04-23 18:57 | 40.12507 | 32.99675 | 3122 ft | 16 kts | 36° |
| 2026-04-23 18:57 | 40.12600 | 32.99763 | 3122 ft | 16 kts | 36° |
| 2026-04-23 18:57 | 40.12697 | 32.99856 | 3123 ft | 18 kts | 36° |
| 2026-04-23 18:58 | 40.12801 | 32.99955 | 3122 ft | 19 kts | 36° |
| 2026-04-23 18:58 | 40.12895 | 33.00045 | 3123 ft | 17 kts | 36° |
| 2026-04-23 18:58 | 40.12990 | 33.00136 | 3126 ft | 17 kts | 36° |
| 2026-04-23 18:58 | 40.13095 | 33.00236 | 3125 ft | 21 kts | 36° |
| 2026-04-23 18:59 | 40.13218 | 33.00353 | 3127 ft | 22 kts | 36° |
| 2026-04-23 18:59 | 40.13333 | 33.00463 | 3129 ft | 19 kts | 36° |
| 2026-04-23 18:59 | 40.13434 | 33.00559 | 3131 ft | 18 kts | 36° |
| 2026-04-23 18:59 | 40.13540 | 33.00661 | 3132 ft | 20 kts | 36° |
| 2026-04-23 19:00 | 40.13654 | 33.00771 | 3133 ft | 21 kts | 36° |
| 2026-04-23 19:00 | 40.13771 | 33.00882 | 3134 ft | 21 kts | 36° |
| 2026-04-23 19:00 | 40.13886 | 33.00993 | 3135 ft | 19 kts | 36° |
| 2026-04-23 19:00 | 40.13991 | 33.01077 | 3136 ft | 18 kts | 14° |
| 2026-04-23 19:01 | 40.14095 | 33.01008 | 3136 ft | 19 kts | 300° |
| 2026-04-23 19:01 | 40.14151 | 33.00864 | 3136 ft | 15 kts | 304° |
| 2026-04-23 19:01 | 40.14183 | 33.00806 | 3136 ft | 0 kts | 306° |
| 2026-04-23 19:01 | 40.14188 | 33.00798 | 3136 ft | 4 kts | 306° |
| 2026-04-23 19:02 | 40.14208 | 33.00759 | 3136 ft | 12 kts | 300° |
| 2026-04-23 19:02 | 40.14177 | 33.00657 | 3136 ft | 0 kts | 216° |
| 2026-04-23 19:04 | 40.14172 | 33.00652 | 3136 ft | 7 kts | 216° |
| 2026-04-23 19:04 | 40.13886 | 33.00378 | 3133 ft | 96 kts | 216° |
| 2026-04-23 19:04 | 40.13145 | 32.99670 | 3147 ft | 162 kts | 217° |
| 2026-04-23 19:04 | 40.12156 | 32.98724 | 3677 ft | 186 kts | 218° |
| 2026-04-23 19:05 | 40.11050 | 32.97673 | 4401 ft | 207 kts | 217° |
| 2026-04-23 19:05 | 40.09824 | 32.96513 | 5044 ft | 226 kts | 217° |
| 2026-04-23 19:05 | 40.08540 | 32.95297 | 5685 ft | 238 kts | 217° |
| 2026-04-23 19:05 | 40.07158 | 32.93993 | 6336 ft | 248 kts | 217° |
| 2026-04-23 19:06 | 40.05738 | 32.92661 | 6967 ft | 253 kts | 217° |
| 2026-04-23 19:06 | 40.04307 | 32.91317 | 7599 ft | 254 kts | 218° |
| 2026-04-23 19:06 | 40.02865 | 32.89960 | 8247 ft | 256 kts | 218° |
| 2026-04-23 19:06 | 40.01268 | 32.88943 | 8901 ft | 263 kts | 192° |
| 2026-04-23 19:07 | 39.99426 | 32.89159 | 9583 ft | 276 kts | 159° |
| 2026-04-23 19:07 | 39.97734 | 32.90466 | 10232 ft | 288 kts | 148° |
| 2026-04-23 19:07 | 39.96052 | 32.91969 | 10835 ft | 300 kts | 148° |
| 2026-04-23 19:07 | 39.94274 | 32.93588 | 11116 ft | 324 kts | 148° |
| 2026-04-23 19:08 | 39.92362 | 32.95333 | 11335 ft | 347 kts | 149° |
| 2026-04-23 19:08 | 39.90207 | 32.96854 | 11689 ft | 356 kts | 163° |
| 2026-04-23 19:08 | 39.87813 | 32.97622 | 12323 ft | 354 kts | 179° |
| 2026-04-23 19:08 | 39.85371 | 32.97613 | 13044 ft | 351 kts | 189° |
| 2026-04-23 19:09 | 39.82924 | 32.97450 | 13819 ft | 356 kts | 185° |
| 2026-04-23 19:09 | 39.80438 | 32.97959 | 14482 ft | 370 kts | 169° |
| 2026-04-23 19:09 | 39.78058 | 32.99392 | 15132 ft | 383 kts | 153° |
| 2026-04-23 19:09 | 39.76019 | 33.01714 | 15770 ft | 398 kts | 136° |
| 2026-04-23 19:10 | 39.74421 | 33.04713 | 16384 ft | 408 kts | 126° |
| 2026-04-23 19:10 | 39.73226 | 33.08109 | 16990 ft | 419 kts | 112° |
| 2026-04-23 19:10 | 39.72621 | 33.11803 | 17566 ft | 430 kts | 99° |
| 2026-04-23 19:10 | 39.72672 | 33.15717 | 18149 ft | 439 kts | 84° |
| 2026-04-23 19:11 | 39.73441 | 33.19568 | 18670 ft | 444 kts | 68° |
| 2026-04-23 19:11 | 39.74867 | 33.23137 | 19197 ft | 446 kts | 57° |
| 2026-04-23 19:11 | 39.76503 | 33.26594 | 19724 ft | 450 kts | 57° |
| 2026-04-23 19:11 | 39.78153 | 33.30069 | 20232 ft | 454 kts | 57° |
| 2026-04-23 19:12 | 39.79254 | 33.32389 | 20558 ft | 457 kts | 57° |
| 2026-04-23 19:12 | 39.81495 | 33.37125 | 21187 ft | 462 kts | 57° |
| 2026-04-23 19:12 | 39.83181 | 33.40703 | 21674 ft | 466 kts | 57° |
| 2026-04-23 19:12 | 39.84876 | 33.44313 | 22129 ft | 470 kts | 57° |
| 2026-04-23 19:13 | 39.86587 | 33.47967 | 22555 ft | 474 kts | 57° |
| 2026-04-23 19:13 | 39.88376 | 33.51582 | 23008 ft | 476 kts | 51° |
| 2026-04-23 19:13 | 39.90420 | 33.54988 | 23449 ft | 479 kts | 49° |
| 2026-04-23 19:13 | 39.92455 | 33.58465 | 23825 ft | 483 kts | 50° |
| 2026-04-23 19:14 | 39.94453 | 33.61999 | 24212 ft | 486 kts | 51° |
| 2026-04-23 19:14 | 39.96439 | 33.65577 | 24611 ft | 489 kts | 51° |
| 2026-04-23 19:14 | 39.98439 | 33.69185 | 24879 ft | 491 kts | 51° |
| 2026-04-23 19:14 | 40.00472 | 33.72825 | 24944 ft | 502 kts | 51° |
| 2026-04-23 19:15 | 40.02562 | 33.76529 | 24947 ft | 513 kts | 50° |
| 2026-04-23 19:15 | 40.03980 | 33.79026 | 24945 ft | 520 kts | 50° |
| 2026-04-23 19:15 | 40.06159 | 33.82853 | 24946 ft | 530 kts | 50° |
| 2026-04-23 19:15 | 40.08379 | 33.86752 | 24958 ft | 539 kts | 50° |
| 2026-04-23 19:16 | 40.11359 | 33.92020 | 24943 ft | 548 kts | 51° |
| 2026-04-23 19:16 | 40.13619 | 33.96046 | 24945 ft | 549 kts | 51° |
| 2026-04-23 19:16 | 40.15875 | 34.00074 | 24945 ft | 550 kts | 51° |
| 2026-04-23 19:17 | 40.19666 | 34.06841 | 24944 ft | 550 kts | 51° |
| 2026-04-23 19:17 | 40.21926 | 34.10880 | 24947 ft | 550 kts | 51° |
| 2026-04-23 19:17 | 40.24162 | 34.14875 | 24944 ft | 551 kts | 51° |
| 2026-04-23 19:17 | 40.26458 | 34.18973 | 24942 ft | 551 kts | 51° |
| 2026-04-23 19:18 | 40.28693 | 34.22967 | 24939 ft | 551 kts | 51° |
| 2026-04-23 19:18 | 40.30954 | 34.27018 | 24939 ft | 551 kts | 51° |
| 2026-04-23 19:18 | 40.33216 | 34.31080 | 24953 ft | 551 kts | 52° |
| 2026-04-23 19:18 | 40.35496 | 34.35190 | 24933 ft | 551 kts | 52° |
| 2026-04-23 19:19 | 40.39968 | 34.43257 | 24918 ft | 550 kts | 52° |
| 2026-04-23 19:19 | 40.42247 | 34.47373 | 24916 ft | 550 kts | 52° |
| 2026-04-23 19:20 | 40.46723 | 34.55466 | 24926 ft | 551 kts | 52° |
| 2026-04-23 19:20 | 40.48970 | 34.59537 | 24922 ft | 552 kts | 52° |
| 2026-04-23 19:20 | 40.51224 | 34.63630 | 24918 ft | 552 kts | 52° |
| 2026-04-23 19:20 | 40.53475 | 34.67723 | 24918 ft | 552 kts | 52° |
| 2026-04-23 19:21 | 40.55723 | 34.71808 | 24921 ft | 552 kts | 52° |
| 2026-04-23 19:21 | 40.60229 | 34.80018 | 24923 ft | 554 kts | 53° |
| 2026-04-23 19:21 | 40.62481 | 34.84131 | 24916 ft | 554 kts | 53° |
| 2026-04-23 19:22 | 40.64735 | 34.88255 | 24921 ft | 554 kts | 53° |
| 2026-04-23 19:22 | 40.66987 | 34.92385 | 24920 ft | 555 kts | 53° |
| 2026-04-23 19:22 | 40.71462 | 35.00607 | 24919 ft | 556 kts | 52° |
| 2026-04-23 19:23 | 40.73743 | 35.04803 | 24910 ft | 556 kts | 52° |
| 2026-04-23 19:23 | 40.75969 | 35.08897 | 24917 ft | 556 kts | 52° |
| 2026-04-23 19:23 | 40.78221 | 35.13048 | 24924 ft | 556 kts | 52° |
| 2026-04-23 19:24 | 40.82732 | 35.21378 | 24950 ft | 557 kts | 53° |
| 2026-04-23 19:24 | 40.84985 | 35.25544 | 24950 ft | 558 kts | 53° |
| 2026-04-23 19:24 | 40.89487 | 35.33890 | 24952 ft | 558 kts | 53° |
| 2026-04-23 19:25 | 40.93964 | 35.42293 | 24943 ft | 558 kts | 56° |
| 2026-04-23 19:25 | 40.97258 | 35.51564 | 24944 ft | 558 kts | 70° |
| 2026-04-23 19:26 | 41.00002 | 35.61194 | 24946 ft | 559 kts | 70° |
| 2026-04-23 19:26 | 41.01359 | 35.65945 | 24937 ft | 559 kts | 70° |
| 2026-04-23 19:27 | 41.04136 | 35.75565 | 24949 ft | 559 kts | 70° |
| 2026-04-23 19:27 | 41.08337 | 35.89745 | 24252 ft | 532 kts | 70° |
| 2026-04-23 19:28 | 41.10903 | 35.98589 | 23057 ft | 497 kts | 71° |
| 2026-04-23 19:28 | 41.13193 | 36.07102 | 21832 ft | 485 kts | 72° |
| 2026-04-23 19:29 | 41.14301 | 36.11304 | 21223 ft | 480 kts | 72° |
| 2026-04-23 19:29 | 41.16507 | 36.19586 | 20062 ft | 473 kts | 71° |
| 2026-04-23 19:30 | 41.18712 | 36.27761 | 18951 ft | 466 kts | 71° |
| 2026-04-23 19:30 | 41.19806 | 36.31800 | 18396 ft | 463 kts | 71° |
| 2026-04-23 19:30 | 41.21942 | 36.39709 | 17132 ft | 439 kts | 71° |
| 2026-04-23 19:31 | 41.22946 | 36.43447 | 16479 ft | 421 kts | 70° |
| 2026-04-23 19:31 | 41.23908 | 36.47054 | 15838 ft | 407 kts | 70° |
| 2026-04-23 19:31 | 41.24824 | 36.50512 | 15218 ft | 397 kts | 70° |
| 2026-04-23 19:31 | 41.25728 | 36.53927 | 14604 ft | 385 kts | 70° |
| 2026-04-23 19:32 | 41.26603 | 36.57228 | 14007 ft | 374 kts | 70° |
| 2026-04-23 19:32 | 41.27456 | 36.60443 | 13357 ft | 364 kts | 70° |
| 2026-04-23 19:32 | 41.28290 | 36.63582 | 12683 ft | 355 kts | 69° |
| 2026-04-23 19:32 | 41.29059 | 36.66665 | 12028 ft | 347 kts | 77° |
| 2026-04-23 19:33 | 41.29231 | 36.69808 | 11416 ft | 338 kts | 97° |
| 2026-04-23 19:33 | 41.28670 | 36.72786 | 10814 ft | 328 kts | 116° |
| 2026-04-23 19:33 | 41.26223 | 36.77683 | 9641 ft | 312 kts | 129° |
| 2026-04-23 19:34 | 41.24949 | 36.79989 | 8989 ft | 307 kts | 128° |
| 2026-04-23 19:34 | 41.23690 | 36.82265 | 8358 ft | 303 kts | 128° |
| 2026-04-23 19:34 | 41.20637 | 36.85703 | 7131 ft | 285 kts | 168° |
| 2026-04-23 19:35 | 41.18710 | 36.85784 | 6533 ft | 275 kts | 194° |
| 2026-04-23 19:35 | 41.17012 | 36.84749 | 5991 ft | 266 kts | 219° |
| 2026-04-23 19:35 | 41.15620 | 36.83194 | 5485 ft | 258 kts | 221° |
| 2026-04-23 19:35 | 41.14268 | 36.81659 | 5011 ft | 253 kts | 221° |
| 2026-04-23 19:36 | 41.12988 | 36.80129 | 4641 ft | 243 kts | 231° |
| 2026-04-23 19:36 | 41.12336 | 36.78160 | 4271 ft | 232 kts | 266° |
| 2026-04-23 19:36 | 41.12641 | 36.76133 | 3904 ft | 224 kts | 300° |
| 2026-04-23 19:36 | 41.13529 | 36.74466 | 3497 ft | 218 kts | 306° |
| 2026-04-23 19:37 | 41.14418 | 36.72864 | 3110 ft | 213 kts | 306° |
| 2026-04-23 19:37 | 41.15265 | 36.71331 | 2711 ft | 199 kts | 306° |
| 2026-04-23 19:37 | 41.16057 | 36.69897 | 2419 ft | 184 kts | 306° |
| 2026-04-23 19:37 | 41.16857 | 36.68683 | 2187 ft | 162 kts | 314° |
| 2026-04-23 19:38 | 41.17603 | 36.67651 | 1967 ft | 161 kts | 313° |
| 2026-04-23 19:38 | 41.18373 | 36.66575 | 1735 ft | 157 kts | 313° |
| 2026-04-23 19:38 | 41.19100 | 36.65556 | 1508 ft | 153 kts | 313° |
| 2026-04-23 19:38 | 41.19839 | 36.64521 | 1314 ft | 152 kts | 313° |
| 2026-04-23 19:39 | 41.20568 | 36.63506 | 1123 ft | 152 kts | 313° |
| 2026-04-23 19:39 | 41.21298 | 36.62493 | 1025 ft | 152 kts | 313° |
| 2026-04-23 19:39 | 41.22007 | 36.61522 | 832 ft | 144 kts | 313° |
| 2026-04-23 19:39 | 41.22685 | 36.60565 | 561 ft | 140 kts | 314° |
| 2026-04-23 19:40 | 41.23356 | 36.59633 | 367 ft | 140 kts | 312° |
| 2026-04-23 19:40 | 41.24033 | 36.58686 | 212 ft | 139 kts | 311° |
| 2026-04-23 19:40 | 41.24694 | 36.57759 | 46 ft | 140 kts | 313° |
| 2026-04-23 19:40 | 41.25297 | 36.56922 | 25 ft | 102 kts | 314° |
| 2026-04-23 19:41 | 41.25668 | 36.56403 | 27 ft | 60 kts | 314° |
| 2026-04-23 19:41 | 41.25910 | 36.56066 | 59 ft | 42 kts | 314° |
| 2026-04-23 19:41 | 41.26024 | 36.55883 | 61 ft | 18 kts | 274° |
| 2026-04-23 19:41 | 41.25967 | 36.55780 | 61 ft | 8 kts | 224° |
| 2026-04-23 19:42 | 41.25928 | 36.55729 | 59 ft | 7 kts | 224° |
| 2026-04-23 19:42 | 41.25906 | 36.55701 | 59 ft | 4 kts | 224° |
| 2026-04-23 19:42 | 41.25878 | 36.55661 | 61 ft | 7 kts | 239° |
| 2026-04-23 19:42 | 41.25874 | 36.55601 | 59 ft | 7 kts | 234° |
| 2026-04-23 19:43 | 41.25850 | 36.55571 | 64 ft | 2 kts | 223° |
| 2026-04-23 19:43 | 41.25844 | 36.55562 | 63 ft | 2 kts | 224° |
| 2026-04-23 19:43 | 41.25836 | 36.55552 | 63 ft | 1 kts | 224° |
| 2026-04-23 19:43 | 41.25835 | 36.55551 | 63 ft | 0 kts | 224° |